Hauptseite
METAR-TAF:

METAR-TAF

Flughäfen :

Heeresflugplatz Fritzlar

Fritzlar, Deutschland

Breite: 51-07N, Länge: 009-17E, Höhe: 172 m

Beobachtung

Neuester Wetterbericht von vor 33 Minuten, um 08:20 UTC
Wind 2 kt aus Ost/Nordost
Temperatur 23°C
Luftfeuchtigkeit 41%
Luftdruck 1024 hPa
Sichtweite 10 km oder mehr
Leicht bewölkt in der Höhe von 35000 ft

METAR: ETHF 110820Z 07002KT 9999 FEW350 23/09 Q1024 BLU+BLU+

Zeit: 10:53 (08:53 UTC)

Prognose

Neuester Wetterbericht von vor 1 Stunde und 33 Minuten, um 07:20 UTC
Gültige Prognose vom 11 um 08 UTC bis 11 um 17 UTC
Wind 7 kt aus Ost
Sichtweite 10 km oder mehr
Leicht bewölkt in der Höhe von 6000 ft
Aufgelockert bewölkt in der Höhe von 35000 ft

TAF: ETHF 110720Z 1108/1117 09007KT 9999 NSW FEW060 SCT350

Wetterbeobachtungen und Prognosen von mehr als 4000 Flughäfen (METAR und TAF Bericht).

Die verfügbaren Stationen werden durch gelbe und rote Markierungen auf der Karte dargestellt.

Führen Sie die Maus auf sie, um den Namen der Station zu sehen.

Darauf klicken, um die Beobachtung von Wetterbeobachtungen und Prognosen zu sehen.

Um die Karte zu ändern : klicken Sie auf den grünen Tasten mit einem schwarzen Kreuz Zum Vergrößern, auf den grünen Button mit einem Gedankenstrich zu verkleinern, oder auf die grünen Pfeile für benachbarte Karten.


METAR-TAF: